createdAt,value
2023-01-03T00:00:00.709Z,97111.06
2023-01-03T00:01:09.396Z,97095.44
2023-01-03T00:02:14.124Z,97108.22
2023-01-03T00:03:17.365Z,97105.75
2023-01-03T00:04:22.286Z,97105.06
2023-01-03T00:05:27.019Z,97112.88
2023-01-03T00:06:34.626Z,97114.69
2023-01-03T00:07:36.759Z,97115.50
2023-01-03T00:08:41.248Z,97107.78
2023-01-03T00:09:45.994Z,97106.09
2023-01-03T00:10:47.900Z,97097.53
2023-01-03T00:12:06.517Z,97103.59
2023-01-03T00:13:11.371Z,97120.91
2023-01-03T00:14:16.571Z,97114.09
2023-01-03T00:15:21.390Z,97119.31
2023-01-03T00:16:23.419Z,97123.63
2023-01-03T00:17:28.203Z,97124.59
2023-01-03T00:18:30.188Z,97129.59
2023-01-03T00:19:37.755Z,97125.41
2023-01-03T00:20:43.071Z,97126.25
2023-01-03T00:21:47.974Z,97115.81
2023-01-03T00:22:50.019Z,97111.56
2023-01-03T00:23:54.566Z,97115.16
2023-01-03T00:24:59.157Z,97115.25
2023-01-03T00:26:09.078Z,97113.59
2023-01-03T00:27:14.033Z,97117.13
2023-01-03T00:28:15.931Z,97117.97
2023-01-03T00:29:20.959Z,97120.53
2023-01-03T00:30:22.915Z,97129.19
2023-01-03T00:31:27.823Z,97120.69
2023-01-03T00:32:29.873Z,97117.34
2023-01-03T00:33:34.770Z,97114.88
2023-01-03T00:34:37.276Z,97116.38
2023-01-03T00:35:44.466Z,97124.94
2023-01-03T00:36:46.473Z,97124.94
2023-01-03T00:37:50.983Z,97130.81
2023-01-03T00:38:53.038Z,97133.50
2023-01-03T00:39:57.569Z,97129.94
2023-01-03T00:41:05.298Z,97137.75
2023-01-03T00:42:10.559Z,97136.72
2023-01-03T00:43:27.528Z,97136.84
2023-01-03T00:44:32.167Z,97130.72
2023-01-03T00:45:35.710Z,97126.47
2023-01-03T00:46:40.557Z,97132.53
2023-01-03T00:47:42.532Z,97132.47
2023-01-03T00:48:47.420Z,97129.13
2023-01-03T00:49:52.119Z,97121.44
2023-01-03T00:50:56.846Z,97129.13
2023-01-03T00:52:01.393Z,97128.13
2023-01-03T00:53:03.367Z,97126.41
2023-01-03T00:54:09.361Z,97133.28
2023-01-03T00:55:11.641Z,97135.84
2023-01-03T00:56:18.093Z,97132.47
2023-01-03T00:57:22.630Z,97127.38
2023-01-03T00:58:24.565Z,97134.97
2023-01-03T00:59:29.135Z,97131.56
2023-01-03T01:00:31.265Z,97134.22
2023-01-03T01:01:45.836Z,97129.06
2023-01-03T01:02:49.048Z,97124.81
2023-01-03T01:03:56.266Z,97125.72
2023-01-03T01:05:01.145Z,97123.97
2023-01-03T01:06:14.685Z,97124.88
2023-01-03T01:07:19.175Z,97133.31
2023-01-03T01:08:21.123Z,97134.91
2023-01-03T01:09:27.392Z,97139.16
2023-01-03T01:10:29.416Z,97130.59
2023-01-03T01:11:34.388Z,97138.47
2023-01-03T01:12:36.346Z,97138.38
2023-01-03T01:13:41.372Z,97145.34
2023-01-03T01:14:43.300Z,97146.16
2023-01-03T01:15:47.995Z,97141.78
2023-01-03T01:16:55.959Z,97143.63
2023-01-03T01:17:58.441Z,97146.28
2023-01-03T01:19:03.399Z,97148.97
2023-01-03T01:20:06.595Z,97150.78
2023-01-03T01:21:16.172Z,97144.81
2023-01-03T01:22:18.198Z,97150.88
2023-01-03T01:23:22.712Z,97143.94
2023-01-03T01:24:25.216Z,97154.31
2023-01-03T01:25:29.837Z,97146.66
2023-01-03T01:26:31.784Z,97142.25
2023-01-03T01:27:36.333Z,97142.31
2023-01-03T01:28:38.714Z,97137.94
2023-01-03T01:29:43.258Z,97136.16
2023-01-03T01:30:45.222Z,97137.97
2023-01-03T01:31:50.389Z,97138.84
2023-01-03T01:32:52.447Z,97132.03
2023-01-03T01:33:58.635Z,97136.38
2023-01-03T01:35:03.181Z,97139.75
2023-01-03T01:36:09.129Z,97143.28
2023-01-03T01:37:16.428Z,97146.69
2023-01-03T01:38:18.346Z,97152.72
2023-01-03T01:39:24.796Z,97150.19
2023-01-03T01:40:27.450Z,97149.34
2023-01-03T01:41:46.230Z,97148.50
2023-01-03T01:43:03.250Z,97145.81
2023-01-03T01:44:20.529Z,97155.28
2023-01-03T01:45:25.107Z,97153.53
2023-01-03T01:46:29.434Z,97148.38
2023-01-03T01:47:39.069Z,97144.91
2023-01-03T01:48:41.607Z,97145.81
2023-01-03T01:49:47.970Z,97139.88
2023-01-03T01:50:54.827Z,97139.06
2023-01-03T01:52:00.156Z,97148.56
2023-01-03T01:53:07.462Z,97151.03
2023-01-03T01:54:13.788Z,97146.78
2023-01-03T01:55:20.658Z,97145.16
2023-01-03T01:56:30.834Z,97148.72
2023-01-03T01:57:34.880Z,97150.56
2023-01-03T01:58:41.535Z,97148.94
2023-01-03T01:59:44.312Z,97150.69
2023-01-03T02:00:48.867Z,97149.88
2023-01-03T02:01:52.793Z,97149.00
2023-01-03T02:02:58.491Z,97162.75
2023-01-03T02:04:04.413Z,97155.09
2023-01-03T02:05:12.277Z,97146.63
2023-01-03T02:06:17.172Z,97152.69
2023-01-03T02:07:23.797Z,97148.47
2023-01-03T02:08:28.578Z,97150.28
2023-01-03T02:09:35.572Z,97151.19
2023-01-03T02:10:51.850Z,97156.38
2023-01-03T02:12:11.942Z,97160.75
2023-01-03T02:13:26.271Z,97165.91
2023-01-03T02:14:42.817Z,97171.09
2023-01-03T02:16:00.036Z,97167.69
2023-01-03T02:17:10.893Z,97174.59
2023-01-03T02:18:35.970Z,97167.00
2023-01-03T02:20:01.469Z,97172.13
2023-01-03T02:21:40.284Z,97168.78
2023-01-03T02:23:26.293Z,97159.47
2023-01-03T02:24:50.615Z,97158.69
2023-01-03T02:26:27.549Z,97165.59
2023-01-03T02:28:00.813Z,97162.19
2023-01-03T02:29:21.625Z,97160.50
2023-01-03T02:30:47.885Z,97162.19
2023-01-03T02:31:57.162Z,97155.38
2023-01-03T02:33:11.463Z,97151.94
2023-01-03T02:34:21.608Z,97158.72
2023-01-03T02:35:33.378Z,97151.91
2023-01-03T02:36:47.539Z,97147.59
2023-01-03T02:38:00.195Z,97150.16
2023-01-03T02:39:11.174Z,97153.53
2023-01-03T02:40:25.568Z,97152.69
2023-01-03T02:41:37.859Z,97155.22
2023-01-03T02:43:05.932Z,97159.50
2023-01-03T02:44:16.147Z,97157.78
2023-01-03T02:45:27.350Z,97161.94
2023-01-03T02:46:43.232Z,97161.84
2023-01-03T02:47:50.520Z,97154.94
2023-01-03T02:49:00.409Z,97163.53
2023-01-03T02:50:05.008Z,97161.84
2023-01-03T02:51:14.346Z,97165.22
2023-01-03T02:52:22.366Z,97166.88
2023-01-03T02:53:30.898Z,97162.53
2023-01-03T02:54:38.755Z,97171.09
2023-01-03T02:55:45.888Z,97168.47
2023-01-03T02:56:52.544Z,97170.28
2023-01-03T02:58:03.772Z,97161.63
2023-01-03T02:59:12.131Z,97161.63
2023-01-03T03:00:20.340Z,97162.53
2023-01-03T03:01:23.478Z,97161.63
2023-01-03T03:02:35.336Z,97165.91
2023-01-03T03:03:39.693Z,97159.91
2023-01-03T03:04:46.041Z,97164.16
2023-01-03T03:05:53.096Z,97164.16
2023-01-03T03:07:04.445Z,97161.63
2023-01-03T03:08:07.481Z,97154.81
2023-01-03T03:09:12.051Z,97164.25
2023-01-03T03:10:29.175Z,97166.00
2023-01-03T03:11:50.916Z,97167.72
2023-01-03T03:13:11.217Z,97170.34
2023-01-03T03:14:20.469Z,97161.84
2023-01-03T03:15:30.353Z,97156.59
2023-01-03T03:16:50.854Z,97163.53
2023-01-03T03:18:02.976Z,97160.06
2023-01-03T03:21:05.020Z,97162.75
2023-01-03T03:22:29.321Z,97163.63
2023-01-03T03:23:50.018Z,97168.72
2023-01-03T03:24:57.582Z,97168.78
2023-01-03T03:26:10.967Z,97165.31
2023-01-03T03:27:32.405Z,97167.00
2023-01-03T03:28:39.237Z,97166.16
2023-01-03T03:29:45.730Z,97161.88
2023-01-03T03:31:04.038Z,97161.00
2023-01-03T03:32:11.295Z,97166.16
2023-01-03T03:33:19.139Z,97162.69
2023-01-03T03:34:27.466Z,97158.47
2023-01-03T03:35:34.309Z,97158.44
2023-01-03T03:36:46.863Z,97159.31
2023-01-03T03:37:54.876Z,97159.28
2023-01-03T03:38:59.613Z,97160.06
2023-01-03T03:40:17.041Z,97160.91
2023-01-03T03:41:42.945Z,97154.94
2023-01-03T03:43:05.092Z,97158.38
2023-01-03T03:44:34.476Z,97157.53
2023-01-03T03:45:47.799Z,97146.44
2023-01-03T03:47:04.061Z,97148.19
2023-01-03T03:48:12.994Z,97153.28
2023-01-03T03:49:36.761Z,97147.19
2023-01-03T03:50:46.245Z,97143.78
2023-01-03T03:51:50.512Z,97137.75
2023-01-03T03:53:00.826Z,97141.16
2023-01-03T03:54:08.235Z,97138.53
2023-01-03T03:55:18.227Z,97139.47
2023-01-03T03:56:28.396Z,97148.06
2023-01-03T03:57:38.539Z,97148.91
2023-01-03T03:58:42.932Z,97151.53
2023-01-03T03:59:52.718Z,97142.94
2023-01-03T04:00:56.771Z,97144.69
2023-01-03T04:02:04.095Z,97138.72
2023-01-03T04:03:09.446Z,97147.28
2023-01-03T04:04:18.334Z,97151.59
2023-01-03T04:05:25.177Z,97160.16
2023-01-03T04:06:36.638Z,97161.00
2023-01-03T04:07:41.309Z,97165.31
2023-01-03T04:08:43.535Z,97170.50
2023-01-03T04:09:48.184Z,97169.66
2023-01-03T04:10:50.708Z,97166.25
2023-01-03T04:11:55.319Z,97168.03
2023-01-03T04:12:57.367Z,97166.34
2023-01-03T04:14:01.927Z,97169.81
2023-01-03T04:15:07.041Z,97174.91
2023-01-03T04:16:11.739Z,97182.63
2023-01-03T04:17:13.831Z,97179.25
2023-01-03T04:18:18.456Z,97182.72
2023-01-03T04:19:20.451Z,97174.16
2023-01-03T04:20:27.831Z,97181.78
2023-01-03T04:21:29.871Z,97176.69
2023-01-03T04:22:34.419Z,97181.88
2023-01-03T04:23:36.562Z,97182.78
2023-01-03T04:24:41.626Z,97182.84
2023-01-03T04:25:43.641Z,97188.06
2023-01-03T04:26:48.571Z,97174.31
2023-01-03T04:27:50.600Z,97183.75
2023-01-03T04:28:55.156Z,97183.72
2023-01-03T04:29:57.296Z,97181.19
2023-01-03T04:31:01.895Z,97177.91
2023-01-03T04:32:04.055Z,97171.94
2023-01-03T04:33:08.658Z,97172.84
2023-01-03T04:34:10.660Z,97178.03
2023-01-03T04:35:15.252Z,97171.16
2023-01-03T04:36:19.893Z,97173.72
2023-01-03T04:37:24.534Z,97178.91
2023-01-03T04:38:29.075Z,97177.28
2023-01-03T04:39:31.132Z,97178.16
2023-01-03T04:40:38.733Z,97178.16
2023-01-03T04:41:40.854Z,97171.34
2023-01-03T04:42:57.895Z,97173.97
2023-01-03T04:44:05.509Z,97177.34
2023-01-03T04:45:08.940Z,97177.47
2023-01-03T04:46:10.967Z,97174.06
2023-01-03T04:47:15.550Z,97179.25
2023-01-03T04:48:17.697Z,97174.97
2023-01-03T04:49:22.688Z,97180.25
2023-01-03T04:50:24.698Z,97180.34
2023-01-03T04:51:32.866Z,97174.31
2023-01-03T04:52:34.829Z,97175.25
2023-01-03T04:53:39.455Z,97178.66
2023-01-03T04:54:41.753Z,97181.19
2023-01-03T04:55:49.528Z,97182.91
2023-01-03T04:56:51.460Z,97180.41
2023-01-03T04:57:56.038Z,97183.84
2023-01-03T04:58:58.317Z,97184.72
2023-01-03T05:00:02.886Z,97185.56
2023-01-03T05:01:08.322Z,97184.75
2023-01-03T05:02:13.242Z,97183.94
2023-01-03T05:03:15.363Z,97186.50
2023-01-03T05:04:20.421Z,97188.22
2023-01-03T05:05:22.502Z,97189.13
2023-01-03T05:06:27.085Z,97190.03
2023-01-03T05:07:31.720Z,97196.03
2023-01-03T05:08:37.158Z,97190.78
2023-01-03T05:09:39.131Z,97195.16
2023-01-03T05:10:44.132Z,97191.75
2023-01-03T05:11:46.141Z,97194.25
2023-01-03T05:12:59.972Z,97199.47
2023-01-03T05:14:02.068Z,97204.59
2023-01-03T05:15:07.161Z,97194.34
2023-01-03T05:16:11.295Z,97185.75
2023-01-03T05:17:15.925Z,97190.00
2023-01-03T05:18:17.955Z,97190.81
2023-01-03T05:19:22.734Z,97194.19
2023-01-03T05:20:39.994Z,97189.88
2023-01-03T05:21:56.979Z,97197.63
2023-01-03T05:23:16.575Z,97197.66
2023-01-03T05:24:33.594Z,97194.13
2023-01-03T05:25:54.049Z,97190.66
2023-01-03T05:26:57.153Z,97192.38
2023-01-03T05:28:02.350Z,97191.44
2023-01-03T05:29:04.505Z,97194.84
2023-01-03T05:30:10.506Z,97200.88
2023-01-03T05:31:12.991Z,97206.84
2023-01-03T05:32:17.603Z,97202.53
2023-01-03T05:33:19.795Z,97205.09
2023-01-03T05:34:24.457Z,97206.81
2023-01-03T05:35:26.378Z,97205.97
2023-01-03T05:36:30.955Z,97206.00
2023-01-03T05:37:33.019Z,97206.00
2023-01-03T05:38:41.127Z,97203.38
2023-01-03T05:39:43.127Z,97198.34
2023-01-03T05:40:47.766Z,97209.56
2023-01-03T05:42:02.178Z,97204.38
2023-01-03T05:43:06.956Z,97202.63
2023-01-03T05:44:08.868Z,97193.19
2023-01-03T05:45:14.193Z,97202.63
2023-01-03T05:46:16.206Z,97203.53
2023-01-03T05:47:20.795Z,97203.53
2023-01-03T05:48:23.184Z,97201.00
2023-01-03T05:49:28.199Z,97195.00
2023-01-03T05:50:30.247Z,97201.91
2023-01-03T05:51:35.014Z,97203.66
2023-01-03T05:52:37.005Z,97205.31
2023-01-03T05:53:44.194Z,97209.66
2023-01-03T05:54:46.132Z,97211.34
2023-01-03T05:55:50.708Z,97214.75
2023-01-03T05:56:52.712Z,97213.06
2023-01-03T05:57:57.280Z,97218.13
2023-01-03T05:58:59.596Z,97222.47
2023-01-03T06:00:04.154Z,97224.25
2023-01-03T06:01:09.355Z,97230.31
2023-01-03T06:02:14.160Z,97227.84
2023-01-03T06:03:18.926Z,97226.16
2023-01-03T06:04:21.004Z,97227.94
2023-01-03T06:05:26.031Z,97228.84
2023-01-03T06:06:28.069Z,97234.88
2023-01-03T06:07:34.163Z,97233.19
2023-01-03T06:08:36.396Z,97235.78
2023-01-03T06:09:43.695Z,97234.13
2023-01-03T06:10:45.767Z,97241.78
2023-01-03T06:11:50.627Z,97234.97
2023-01-03T06:12:52.599Z,97239.31
2023-01-03T06:13:57.217Z,97241.91
2023-01-03T06:14:59.180Z,97244.47
2023-01-03T06:16:24.488Z,97247.91
2023-01-03T06:17:41.990Z,97242.81
2023-01-03T06:18:46.563Z,97246.22
2023-01-03T06:19:48.566Z,97247.94
2023-01-03T06:20:53.123Z,97253.09
2023-01-03T06:21:55.103Z,97252.25
2023-01-03T06:22:59.926Z,97244.56
2023-01-03T06:24:02.054Z,97258.25
2023-01-03T06:25:09.722Z,97259.97
2023-01-03T06:26:11.796Z,97255.69
2023-01-03T06:27:16.418Z,97254.81
2023-01-03T06:28:18.341Z,97258.22
2023-01-03T06:29:23.018Z,97263.31
2023-01-03T06:30:25.020Z,97262.50
2023-01-03T06:31:30.117Z,97262.50
2023-01-03T06:32:32.214Z,97264.22
2023-01-03T06:33:37.073Z,97261.69
2023-01-03T06:34:39.351Z,97261.69
2023-01-03T06:35:43.904Z,97259.97
2023-01-03T06:36:45.851Z,97258.28
2023-01-03T06:37:50.389Z,97262.53
2023-01-03T06:38:52.448Z,97253.97
2023-01-03T06:39:57.068Z,97255.69
2023-01-03T06:41:02.053Z,97257.38
2023-01-03T06:42:20.176Z,97255.69
2023-01-03T06:43:24.758Z,97258.28
2023-01-03T06:44:26.775Z,97254.03
2023-01-03T06:45:43.839Z,97258.34
2023-01-03T06:47:00.943Z,97265.19
2023-01-03T06:48:22.219Z,97262.63
2023-01-03T06:49:39.275Z,97256.69
2023-01-03T06:50:57.320Z,97260.97
2023-01-03T06:52:14.414Z,97267.81
2023-01-03T06:53:21.613Z,97260.13
2023-01-03T06:54:28.011Z,97261.84
2023-01-03T06:55:30.054Z,97259.31
2023-01-03T06:56:37.247Z,97262.72
2023-01-03T06:57:39.208Z,97267.84
2023-01-03T06:58:43.758Z,97264.47
2023-01-03T06:59:45.740Z,97267.03
2023-01-03T07:00:50.329Z,97267.91
2023-01-03T07:01:53.552Z,97272.16
2023-01-03T07:02:58.317Z,97272.13
2023-01-03T07:04:01.806Z,97272.16
2023-01-03T07:05:06.714Z,97271.31
2023-01-03T07:06:11.345Z,97284.13
2023-01-03T07:07:13.317Z,97289.25
2023-01-03T07:08:17.947Z,97281.56
2023-01-03T07:09:20.011Z,97284.13
2023-01-03T07:10:24.617Z,97287.53
2023-01-03T07:11:26.951Z,97284.97
2023-01-03T07:12:46.571Z,97286.66
2023-01-03T07:14:03.577Z,97290.97
2023-01-03T07:15:06.566Z,97286.69
2023-01-03T07:16:16.558Z,97292.66
2023-01-03T07:17:21.285Z,97291.81
2023-01-03T07:18:23.670Z,97299.47
2023-01-03T07:19:29.043Z,97290.97
2023-01-03T07:20:31.026Z,97291.81
2023-01-03T07:21:37.446Z,97287.56
2023-01-03T07:22:39.403Z,97292.66
2023-01-03T07:23:44.181Z,97294.38
2023-01-03T07:24:48.782Z,97290.97
2023-01-03T07:25:54.825Z,97289.25
2023-01-03T07:26:59.493Z,97290.94
2023-01-03T07:28:08.064Z,97297.81
2023-01-03T07:29:14.126Z,97289.25
2023-01-03T07:30:16.180Z,97294.38
2023-01-03T07:31:21.262Z,97291.81
2023-01-03T07:32:23.287Z,97289.25
2023-01-03T07:33:27.850Z,97294.38
2023-01-03T07:34:30.919Z,97292.66
2023-01-03T07:35:35.873Z,97290.97
2023-01-03T07:36:40.625Z,97295.22
2023-01-03T07:37:42.608Z,97299.50
2023-01-03T07:38:48.264Z,97296.09
2023-01-03T07:39:52.815Z,97296.09
2023-01-03T07:40:56.623Z,97299.50
2023-01-03T07:42:13.635Z,97292.69
2023-01-03T07:43:33.283Z,97291.81
2023-01-03T07:44:37.849Z,97293.53
2023-01-03T07:45:41.365Z,97290.97
2023-01-03T07:46:46.003Z,97289.22
2023-01-03T07:47:48.056Z,97285.81
2023-01-03T07:48:54.102Z,97295.19
2023-01-03T07:49:58.806Z,97302.03
2023-01-03T07:51:01.036Z,97300.31
2023-01-03T07:52:05.636Z,97300.31
2023-01-03T07:53:08.829Z,97303.75
2023-01-03T07:54:13.412Z,97304.56
2023-01-03T07:55:15.621Z,97300.31
2023-01-03T07:56:21.023Z,97307.09
2023-01-03T07:57:22.988Z,97297.72
2023-01-03T07:58:30.165Z,97298.59
2023-01-03T07:59:34.734Z,97307.94
2023-01-03T08:00:36.662Z,97307.97
2023-01-03T08:01:41.520Z,97304.53
2023-01-03T08:02:43.806Z,97313.06
2023-01-03T08:03:48.835Z,97307.06
2023-01-03T08:04:50.897Z,97317.31
2023-01-03T08:05:55.447Z,97319.84
2023-01-03T08:07:00.431Z,97315.53
2023-01-03T08:08:03.476Z,97312.97
2023-01-03T08:09:20.559Z,97314.66
2023-01-03T08:10:37.603Z,97308.66
2023-01-03T08:11:54.986Z,97316.31
2023-01-03T08:13:11.974Z,97316.28
2023-01-03T08:14:25.313Z,97311.97
2023-01-03T08:15:28.375Z,97313.63
2023-01-03T08:16:32.994Z,97312.72
2023-01-03T08:17:35.048Z,97317.81
2023-01-03T08:18:40.153Z,97319.47
2023-01-03T08:19:45.960Z,97315.97
2023-01-03T08:20:51.603Z,97321.03
2023-01-03T08:21:53.696Z,97321.84
2023-01-03T08:22:58.286Z,97312.34
2023-01-03T08:24:02.867Z,97313.97
2023-01-03T08:25:05.537Z,97320.69
2023-01-03T08:26:12.203Z,97321.47
2023-01-03T08:27:14.206Z,97324.78
2023-01-03T08:28:19.192Z,97326.44
2023-01-03T08:29:26.322Z,97322.91
2023-01-03T08:30:29.715Z,97326.22
2023-01-03T08:31:37.827Z,97322.69
2023-01-03T08:32:40.014Z,97330.25
2023-01-03T08:33:51.621Z,97325.00
2023-01-03T08:34:54.912Z,97324.06
2023-01-03T08:36:05.172Z,97323.09
2023-01-03T08:37:10.872Z,97323.06
2023-01-03T08:38:46.493Z,97318.72
2023-01-03T08:39:56.146Z,97322.06
2023-01-03T08:41:03.484Z,97316.84
2023-01-03T08:42:08.360Z,97319.31
2023-01-03T08:43:15.540Z,97318.34
2023-01-03T08:44:20.125Z,97325.09
2023-01-03T08:45:29.952Z,97325.78
2023-01-03T08:46:33.509Z,97324.00
2023-01-03T08:47:38.631Z,97323.00
2023-01-03T08:48:43.835Z,97323.84
2023-01-03T08:49:45.837Z,97320.31
2023-01-03T08:50:50.857Z,97319.41
2023-01-03T08:51:53.337Z,97326.22
2023-01-03T08:52:58.024Z,97320.16
2023-01-03T08:54:03.488Z,97319.22
2023-01-03T08:55:06.575Z,97323.47
2023-01-03T08:56:11.446Z,97325.13
2023-01-03T08:57:15.245Z,97324.25
2023-01-03T08:58:19.965Z,97325.09
2023-01-03T08:59:25.316Z,97327.56
2023-01-03T09:00:33.624Z,97325.78
2023-01-03T09:01:36.152Z,97335.13
2023-01-03T09:02:41.272Z,97329.91
2023-01-03T09:03:43.849Z,97332.44
2023-01-03T09:04:52.575Z,97334.94
2023-01-03T09:05:58.313Z,97336.47
2023-01-03T09:07:02.892Z,97336.28
2023-01-03T09:08:08.652Z,97336.16
2023-01-03T09:09:13.283Z,97342.88
2023-01-03T09:10:18.943Z,97341.00
2023-01-03T09:11:24.386Z,97338.25
2023-01-03T09:12:30.227Z,97342.38
2023-01-03T09:13:35.026Z,97341.41
2023-01-03T09:14:37.482Z,97344.72
2023-01-03T09:15:45.518Z,97343.72
2023-01-03T09:16:49.429Z,97337.56
2023-01-03T09:17:54.196Z,97341.69
2023-01-03T09:18:59.698Z,97336.41
2023-01-03T09:20:04.743Z,97342.28
2023-01-03T09:21:09.564Z,97336.13
2023-01-03T09:22:11.537Z,97335.13
2023-01-03T09:23:16.127Z,97331.56
2023-01-03T09:24:20.787Z,97334.81
2023-01-03T09:25:29.219Z,97333.84
2023-01-03T09:26:34.513Z,97340.56
2023-01-03T09:27:39.066Z,97342.13
2023-01-03T09:28:43.684Z,97338.47
2023-01-03T09:29:49.117Z,97336.53
2023-01-03T09:30:58.226Z,97342.38
2023-01-03T09:32:39.044Z,97345.50
2023-01-03T09:33:44.315Z,97348.56
2023-01-03T09:34:46.476Z,97344.06
2023-01-03T09:35:52.716Z,97337.81
2023-01-03T09:37:00.102Z,97341.03
2023-01-03T09:38:06.552Z,97342.59
2023-01-03T09:39:12.482Z,97327.72
2023-01-03T09:40:14.864Z,97331.88
2023-01-03T09:41:24.507Z,97336.94
2023-01-03T09:42:43.933Z,97345.53
2023-01-03T09:43:51.915Z,97348.81
2023-01-03T09:44:54.824Z,97343.53
2023-01-03T09:46:02.924Z,97344.28
2023-01-03T09:47:05.533Z,97345.09
2023-01-03T09:48:16.305Z,97340.66
2023-01-03T09:49:21.352Z,97341.50
2023-01-03T09:50:44.395Z,97337.19
2023-01-03T09:52:08.142Z,97337.50
2023-01-03T09:53:33.119Z,97339.00
2023-01-03T09:54:53.981Z,97338.88
2023-01-03T09:56:21.132Z,97342.97
2023-01-03T09:57:42.016Z,97347.81
2023-01-03T09:59:07.837Z,97343.50
2023-01-03T10:00:30.314Z,97339.59
2023-01-03T10:02:01.520Z,97338.28
2023-01-03T10:03:34.530Z,97337.06
2023-01-03T10:05:09.456Z,97337.81
2023-01-03T10:06:22.904Z,97345.53
2023-01-03T10:08:03.424Z,97340.91
2023-01-03T10:09:26.832Z,97342.34
2023-01-03T10:10:37.220Z,97344.56
2023-01-03T10:11:50.771Z,97344.47
2023-01-03T10:13:07.598Z,97343.72
2023-01-03T10:14:31.135Z,97353.34
2023-01-03T10:15:48.368Z,97341.41
2023-01-03T10:17:05.068Z,97341.38
2023-01-03T10:18:22.493Z,97343.97
2023-01-03T10:19:53.647Z,97346.91
2023-01-03T10:21:03.869Z,97346.41
2023-01-03T10:22:11.403Z,97352.41
2023-01-03T10:23:16.535Z,97350.16
2023-01-03T10:24:26.296Z,97350.75
2023-01-03T10:25:29.418Z,97350.00
2023-01-03T10:26:35.854Z,97346.59
2023-01-03T10:27:46.528Z,97348.25
2023-01-03T10:28:51.348Z,97352.94
2023-01-03T10:29:56.922Z,97346.94
2023-01-03T10:31:18.513Z,97340.16
2023-01-03T10:32:47.621Z,97335.19
2023-01-03T10:33:52.770Z,97336.59
2023-01-03T10:35:23.731Z,97344.59
2023-01-03T10:36:28.351Z,97337.06
2023-01-03T10:37:30.385Z,97328.59
2023-01-03T10:38:43.638Z,97337.06
2023-01-03T10:39:51.113Z,97333.50
2023-01-03T10:40:59.264Z,97333.03
2023-01-03T10:42:03.825Z,97329.41
2023-01-03T10:43:13.949Z,97326.38
2023-01-03T10:44:27.693Z,97325.53
2023-01-03T10:45:41.554Z,97315.72
2023-01-03T10:46:53.671Z,97319.19
2023-01-03T10:48:06.120Z,97315.94
2023-01-03T10:49:30.002Z,97314.56
2023-01-03T10:50:40.725Z,97321.88
2023-01-03T10:51:53.683Z,97323.25
2023-01-03T10:53:02.985Z,97325.25
2023-01-03T10:54:16.852Z,97327.88
2023-01-03T10:55:23.902Z,97326.84
2023-01-03T10:56:31.553Z,97310.75
2023-01-03T10:57:39.650Z,97312.75
2023-01-03T10:58:44.505Z,97309.03
2023-01-03T10:59:49.935Z,97313.78
2023-01-03T11:00:56.218Z,97330.53
2023-01-03T11:02:02.376Z,97327.25
2023-01-03T11:03:18.966Z,97335.94
2023-01-03T11:04:23.552Z,97329.06
2023-01-03T11:05:26.714Z,97328.22
2023-01-03T11:06:31.339Z,97331.19
2023-01-03T11:07:33.901Z,97323.00
2023-01-03T11:08:46.117Z,97324.00
2023-01-03T11:09:53.749Z,97324.91
2023-01-03T11:10:58.140Z,97321.97
2023-01-03T11:12:07.074Z,97315.56
2023-01-03T11:13:25.685Z,97317.91
2023-01-03T11:14:30.790Z,97310.03
2023-01-03T11:15:39.940Z,97304.25
2023-01-03T11:16:41.925Z,97317.19
2023-01-03T11:17:56.989Z,97314.88
2023-01-03T11:19:06.144Z,97313.22
2023-01-03T11:20:21.405Z,97308.50
2023-01-03T11:21:31.057Z,97310.19
2023-01-03T11:22:42.948Z,97309.84
2023-01-03T11:24:05.990Z,97313.38
2023-01-03T11:25:22.157Z,97311.44
2023-01-03T11:26:36.375Z,97317.34
2023-01-03T11:27:59.595Z,97313.72
2023-01-03T11:29:17.798Z,97305.72
2023-01-03T11:30:29.558Z,97306.16
2023-01-03T11:31:43.974Z,97300.72
2023-01-03T11:33:00.592Z,97305.75
2023-01-03T11:34:21.999Z,97296.00
2023-01-03T11:35:40.042Z,97287.47
2023-01-03T11:36:51.168Z,97270.75
2023-01-03T11:38:01.691Z,97271.44
2023-01-03T11:39:26.323Z,97280.63
2023-01-03T11:40:42.289Z,97268.88
2023-01-03T11:42:08.517Z,97277.59
2023-01-03T11:43:25.864Z,97266.72
2023-01-03T11:44:54.260Z,97259.28
2023-01-03T11:56:02.977Z,97239.53
2023-01-03T11:57:14.046Z,97250.28
2023-01-03T11:58:41.928Z,97242.47
2023-01-03T12:00:02.294Z,97255.94
2023-01-03T12:01:22.867Z,97266.34
2023-01-03T12:02:58.332Z,97270.69
2023-01-03T12:04:25.988Z,97267.75
2023-01-03T12:05:43.250Z,97264.50
2023-01-03T12:07:14.340Z,97263.59
2023-01-03T12:08:47.089Z,97283.88
2023-01-03T12:09:55.973Z,97280.06
2023-01-03T12:11:08.810Z,97282.03
2023-01-03T12:12:41.658Z,97284.16
2023-01-03T12:13:55.554Z,97284.09
2023-01-03T12:15:08.781Z,97284.19
2023-01-03T12:16:23.780Z,97284.16
2023-01-03T12:20:43.066Z,97289.97
2023-01-03T12:21:55.159Z,97281.03
2023-01-03T12:23:10.270Z,97279.97
2023-01-03T12:24:20.670Z,97277.69
2023-01-03T12:25:34.265Z,97282.59
2023-01-03T12:26:42.720Z,97288.22
2023-01-03T12:27:51.768Z,97288.44
2023-01-03T12:29:03.271Z,97285.06
2023-01-03T12:30:19.440Z,97282.97
2023-01-03T12:31:31.970Z,97282.38
2023-01-03T12:32:45.537Z,97287.56
2023-01-03T12:33:58.631Z,97279.47
2023-01-03T12:35:17.712Z,97285.09
2023-01-03T12:36:35.935Z,97281.13
2023-01-03T12:37:43.524Z,97273.81
2023-01-03T12:39:02.699Z,97277.19
2023-01-03T12:40:21.958Z,97276.53
2023-01-03T12:41:34.629Z,97269.50
2023-01-03T12:42:43.641Z,97262.94
2023-01-03T12:43:54.196Z,97249.66
2023-01-03T12:45:06.445Z,97263.28
2023-01-03T12:46:16.465Z,97260.38
2023-01-03T12:47:31.254Z,97251.38
2023-01-03T12:48:48.408Z,97251.44
2023-01-03T12:49:59.894Z,97246.41
2023-01-03T12:51:01.964Z,97235.59
2023-01-03T12:52:16.763Z,97231.03
2023-01-03T12:53:29.501Z,97236.59
2023-01-03T12:54:43.256Z,97240.97
2023-01-03T12:56:01.075Z,97230.13
2023-01-03T12:57:30.837Z,97228.41
2023-01-03T12:58:49.414Z,97228.59
2023-01-03T13:00:23.816Z,97219.81
2023-01-03T13:01:31.451Z,97233.59
2023-01-03T13:02:49.186Z,97232.63
2023-01-03T13:03:59.267Z,97236.75
2023-01-03T13:05:17.809Z,97229.47
2023-01-03T13:06:25.309Z,97232.00
2023-01-03T13:07:37.956Z,97232.19
2023-01-03T13:08:48.168Z,97226.72
2023-01-03T13:10:00.774Z,97220.38
2023-01-03T13:11:10.345Z,97222.38
2023-01-03T13:12:19.279Z,97216.97
2023-01-03T13:13:24.865Z,97220.31
2023-01-03T13:14:31.258Z,97219.22
2023-01-03T13:15:37.316Z,97228.28
2023-01-03T13:16:46.900Z,97221.56
2023-01-03T13:17:54.103Z,97215.41
2023-01-03T13:18:58.894Z,97215.94
2023-01-03T13:20:27.965Z,97221.22
2023-01-03T13:21:54.510Z,97221.91
2023-01-03T13:23:02.528Z,97220.72
2023-01-03T13:24:05.090Z,97221.56
2023-01-03T13:25:40.073Z,97224.22
2023-01-03T13:27:28.337Z,97226.59
2023-01-03T13:28:36.804Z,97220.22
2023-01-03T13:30:49.606Z,97221.28
2023-01-03T13:32:17.139Z,97214.44
2023-01-03T13:33:23.377Z,97215.75
2023-01-03T13:34:45.513Z,97204.19
2023-01-03T13:36:01.773Z,97208.88
2023-01-03T13:37:18.609Z,97213.13
2023-01-03T13:38:28.766Z,97222.41
2023-01-03T13:39:39.354Z,97218.84
2023-01-03T13:41:16.484Z,97216.50
2023-01-03T13:42:23.472Z,97221.56
2023-01-03T13:43:37.837Z,97222.97
2023-01-03T13:44:41.568Z,97215.44
2023-01-03T13:45:59.025Z,97210.63